Time;durP1;ratioP1;P1;durP2;ratioP2;P2;SDS_P1;SDS_P2;PMS_P1;PMS_P2;Temp;Humidity;BMP_temperature;BMP_pressure;BME280_temperature;BME280_humidity;BME280_pressure;Samples;Min_cycle;Max_cycle;Signal;HPM_P1;HPM_P2
2021/03/29 00:01:57;;;;;;;24.30;9.00;;;;;;;7.05;54.37;100270.11;114274;1193;64382;-82
2021/03/29 00:04:23;;;;;;;27.17;10.37;;;;;;;7.05;54.36;100267.45;114242;1193;64324;-77
2021/03/29 00:06:52;;;;;;;24.37;7.60;;;;;;;7.05;54.51;100272.77;114249;1193;64558;-78
2021/03/29 00:09:20;;;;;;;29.80;8.60;;;;;;;7.05;54.59;100271.91;114269;1192;64455;-80
2021/03/29 00:11:49;;;;;;;22.95;7.90;;;;;;;7.04;53.95;100257.77;114354;1193;64371;-82
2021/03/29 00:14:16;;;;;;;18.87;7.10;;;;;;;7.03;54.52;100265.80;114269;1193;64372;-78
2021/03/29 00:16:44;;;;;;;18.55;6.90;;;;;;;7.04;54.31;100267.52;114297;1193;64426;-77
2021/03/29 00:19:11;;;;;;;16.45;7.45;;;;;;;7.04;54.64;100275.49;114357;1192;64362;-80
2021/03/29 00:21:38;;;;;;;21.23;6.80;;;;;;;7.07;54.63;100263.91;114235;1192;64522;-81
2021/03/29 00:24:06;;;;;;;17.80;7.60;;;;;;;7.08;54.21;100262.97;114255;1193;64544;-81
2021/03/29 00:26:35;;;;;;;12.45;6.45;;;;;;;7.07;54.99;100272.73;114296;1193;64356;-78
2021/03/29 00:29:02;;;;;;;15.80;7.23;;;;;;;7.08;54.11;100271.80;114279;1192;64316;-78
2021/03/29 00:31:30;;;;;;;21.27;7.73;;;;;;;7.07;54.60;100272.73;114299;1193;64324;-80
2021/03/29 00:33:58;;;;;;;14.30;5.63;;;;;;;7.08;54.38;100279.78;114328;1193;64397;-78
2021/03/29 00:36:26;;;;;;;18.07;6.13;;;;;;;7.09;54.78;100278.84;114326;1192;64397;-80
2021/03/29 00:38:54;;;;;;;10.05;5.10;;;;;;;7.10;54.82;100277.91;114354;1192;64359;-78
2021/03/29 00:41:22;;;;;;;14.75;5.25;;;;;;;7.14;54.53;100271.57;114326;1192;64292;-80
2021/03/29 00:43:51;;;;;;;13.03;4.77;;;;;;;7.18;54.69;100274.95;114347;1193;64356;-78
2021/03/29 00:46:19;;;;;;;10.97;4.80;;;;;;;7.22;54.76;100265.95;114280;1192;64503;-78
2021/03/29 00:48:50;;;;;;;10.55;5.25;;;;;;;7.24;54.46;100266.75;114219;1193;64516;-79
2021/03/29 00:51:20;;;;;;;19.17;6.23;;;;;;;7.28;54.68;100269.23;114252;1192;64419;-79
2021/03/29 00:53:56;;;;;;;15.93;7.03;;;;;;;7.30;54.99;100263.85;114287;1193;64821;-82
2021/03/29 00:56:24;;;;;;;20.75;7.55;;;;;;;7.30;54.91;100255.88;114263;1193;64452;-78
2021/03/29 00:58:52;;;;;;;17.15;7.40;;;;;;;7.30;55.18;100259.41;114285;1193;64413;-79
2021/03/29 01:01:22;;;;;;;15.70;6.80;;;;;;;7.29;54.77;100255.02;114271;1193;64368;-83
2021/03/29 01:04:01;;;;;;;13.83;5.40;;;;;;;7.26;54.96;100249.84;114238;1192;64375;-80
2021/03/29 01:06:31;;;;;;;12.77;5.97;;;;;;;7.25;55.29;100242.80;114635;1193;64318;-80
2021/03/29 01:09:14;;;;;;;9.93;5.47;;;;;;;7.24;55.06;100246.36;114281;1192;64442;-79
2021/03/29 01:11:45;;;;;;;17.50;5.87;;;;;;;7.22;54.60;100250.02;114259;1193;64375;-79
2021/03/29 01:14:20;;;;;;;11.97;4.87;;;;;;;7.22;55.06;100247.36;114512;1193;64465;-79
2021/03/29 01:16:52;;;;;;;10.50;5.25;;;;;;;7.23;55.25;100257.05;114338;1193;64291;-83
2021/03/29 01:19:37;;;;;;;12.30;5.40;;;;;;;7.23;55.38;100252.60;114377;1193;64343;-79
2021/03/29 01:22:06;;;;;;;;;;;;;;;7.23;55.30;100251.73;114323;1200;64398;-77
2021/03/29 01:24:45;;;;;;;13.00;5.15;;;;;;;7.22;54.80;100253.53;114351;1193;64420;-81
2021/03/29 01:27:14;;;;;;;18.00;5.50;;;;;;;7.21;55.29;100248.28;114282;1193;64375;-78
2021/03/29 01:29:42;;;;;;;14.27;5.73;;;;;;;7.18;55.19;100249.25;114344;1192;64461;-80
2021/03/29 01:32:12;;;;;;;13.00;5.50;;;;;;;7.18;55.63;100243.94;114287;1193;64349;-79
2021/03/29 01:34:40;;;;;;;13.23;5.80;;;;;;;7.18;55.19;100246.59;114367;1193;64388;-82
2021/03/29 01:37:08;;;;;;;10.45;5.40;;;;;;;7.18;55.24;100246.59;114612;1192;64327;-82
2021/03/29 01:39:36;;;;;;;14.40;5.17;;;;;;;7.18;55.12;100253.70;114288;1193;64362;-79
2021/03/29 01:42:04;;;;;;;11.53;5.00;;;;;;;7.16;55.89;100248.45;114318;1192;64371;-78
2021/03/29 01:44:31;;;;;;;13.23;5.40;;;;;;;7.19;55.57;100245.70;114322;1193;64340;-79
2021/03/29 01:46:58;;;;;;;14.50;5.53;;;;;;;7.21;55.24;100242.97;114725;1193;64406;-81
2021/03/29 01:49:25;;;;;;;11.63;5.40;;;;;;;7.23;55.66;100239.31;114318;1192;64346;-78
2021/03/29 01:51:54;;;;;;;14.40;5.97;;;;;;;7.24;55.63;100243.70;114303;1193;64439;-78
2021/03/29 01:54:21;;;;;;;9.55;5.15;;;;;;;7.22;55.28;100237.59;114604;1193;64358;-78
2021/03/29 01:56:48;;;;;;;17.70;5.45;;;;;;;7.22;55.54;100228.76;114318;1193;64359;-77
2021/03/29 01:59:15;;;;;;;13.57;5.53;;;;;;;7.20;55.47;100234.14;114310;1193;64368;-78
2021/03/29 02:01:41;;;;;;;14.83;5.47;;;;;;;7.22;55.44;100229.63;114666;1193;64366;-78
2021/03/29 02:04:09;;;;;;;13.90;5.13;;;;;;;7.24;55.33;100233.07;114234;1192;64385;-85
2021/03/29 02:06:36;;;;;;;9.50;4.35;;;;;;;7.27;55.36;100230.31;114327;1193;64371;-79
2021/03/29 02:09:06;;;;;;;11.27;4.17;;;;;;;7.30;55.56;100235.48;114670;1193;64391;-78
2021/03/29 02:11:33;;;;;;;15.57;6.87;;;;;;;7.34;55.44;100240.70;114377;1193;64330;-80
2021/03/29 02:14:01;;;;;;;18.45;8.45;;;;;;;7.37;55.82;100243.22;114201;1193;64814;-83
2021/03/29 02:16:29;;;;;;;16.27;7.30;;;;;;;7.40;55.31;100237.80;114341;1193;64353;-82
2021/03/29 02:18:58;;;;;;;17.40;7.50;;;;;;;7.39;55.84;100233.41;114616;1193;64318;-81
2021/03/29 02:21:30;;;;;;;18.77;7.87;;;;;;;7.38;55.54;100236.97;114312;1193;64867;-77
2021/03/29 02:23:58;;;;;;;17.57;8.10;;;;;;;7.38;55.91;100229.00;114221;1193;64439;-78
2021/03/29 02:26:28;;;;;;;15.23;6.80;;;;;;;7.40;55.80;100227.16;114262;1193;64367;-79
2021/03/29 02:28:56;;;;;;;15.55;7.05;;;;;;;7.41;55.58;100223.58;114512;1193;64401;-82
2021/03/29 02:31:26;;;;;;;18.05;7.35;;;;;;;7.40;56.09;100217.39;114279;1193;64362;-78
2021/03/29 02:33:54;;;;;;;14.33;6.90;;;;;;;7.42;55.91;100222.64;114272;1193;64374;-80
2021/03/29 02:36:21;;;;;;;12.65;5.80;;;;;;;7.41;55.92;100220.91;114320;1191;64327;-78
2021/03/29 02:38:50;;;;;;;14.27;6.00;;;;;;;7.42;55.64;100217.33;114267;1193;64503;-77
2021/03/29 02:41:21;;;;;;;14.03;5.83;;;;;;;7.42;55.69;100219.98;114611;1193;64362;-81
2021/03/29 02:43:49;;;;;;;12.07;5.57;;;;;;;7.43;56.33;100221.70;114302;1193;64346;-79
2021/03/29 02:46:21;;;;;;;12.10;5.47;;;;;;;7.44;55.95;100224.30;114362;1193;64397;-81
2021/03/29 02:48:49;;;;;;;11.03;5.53;;;;;;;7.46;56.31;100221.60;114241;1193;64374;-81
2021/03/29 02:51:17;;;;;;;14.43;6.73;;;;;;;7.46;55.84;100227.78;114701;1193;64384;-79
2021/03/29 02:53:52;;;;;;;12.05;5.85;;;;;;;7.51;56.39;100232.92;114433;1193;64394;-78
2021/03/29 02:56:22;;;;;;;19.58;5.93;;;;;;;7.56;56.05;100230.91;114303;1193;64368;-79
2021/03/29 02:58:52;;;;;;;12.90;5.20;;;;;;;7.56;56.08;100228.25;114270;1193;64460;-83
2021/03/29 03:01:24;;;;;;;14.73;4.77;;;;;;;7.57;56.25;100229.98;114419;1192;64374;-79
2021/03/29 03:03:53;;;;;;;10.05;5.00;;;;;;;7.56;56.10;100229.11;114260;1192;64455;-79
2021/03/29 03:06:26;;;;;;;13.45;4.50;;;;;;;7.56;56.08;100228.25;114367;1193;64362;-76
2021/03/29 03:08:53;;;;;;;14.33;5.07;;;;;;;7.57;56.24;100236.19;114692;1193;64368;-78
2021/03/29 03:11:21;;;;;;;13.10;4.90;;;;;;;7.58;56.04;100237.05;114301;1193;64337;-78
2021/03/29 03:13:48;;;;;;;12.23;5.17;;;;;;;7.59;56.29;100234.32;114248;1193;64372;-81
2021/03/29 03:16:16;;;;;;;11.83;5.30;;;;;;;7.62;55.76;100229.80;114262;1193;64698;-79
2021/03/29 03:18:46;;;;;;;12.95;5.25;;;;;;;7.64;56.11;100236.80;114296;1193;64352;-80
2021/03/29 03:21:16;;;;;;;16.70;5.75;;;;;;;7.68;55.94;100243.70;114626;1193;64388;-78
2021/03/29 03:23:57;;;;;;;13.93;6.00;;;;;;;7.69;56.24;100242.77;114326;1193;64288;-81
2021/03/29 03:26:25;;;;;;;13.00;6.10;;;;;;;7.70;55.92;100246.28;114257;1193;64350;-78
2021/03/29 03:28:53;;;;;;;11.60;5.00;;;;;;;7.69;56.16;100240.11;114241;1193;64452;-80
2021/03/29 03:31:21;;;;;;;13.00;5.57;;;;;;;7.68;56.32;100243.70;114407;1193;64333;-76
2021/03/29 03:33:48;;;;;;;14.90;6.25;;;;;;;7.67;56.01;100246.43;114637;1192;64377;-80
2021/03/29 03:36:18;;;;;;;11.30;5.07;;;;;;;7.65;56.47;100245.64;114262;1193;64327;-85
2021/03/29 03:38:48;;;;;;;12.97;5.73;;;;;;;7.64;56.23;100242.12;114311;1193;64299;-83
2021/03/29 03:41:27;;;;;;;13.07;6.10;;;;;;;7.61;56.50;100239.56;114280;1193;64340;-78
2021/03/29 03:43:56;;;;;;;13.03;5.90;;;;;;;7.60;56.10;100243.16;114268;1192;64394;-79
2021/03/29 03:46:28;;;;;;;13.07;6.13;;;;;;;7.58;56.82;100240.57;114474;1193;64371;-80
2021/03/29 03:49:08;;;;;;;11.90;5.73;;;;;;;7.55;56.17;100239.81;114394;1193;64394;-78
2021/03/29 03:51:36;;;;;;;12.57;6.30;;;;;;;7.53;56.50;100239.89;114237;1193;64292;-82
2021/03/29 03:54:04;;;;;;;10.20;5.40;;;;;;;7.53;56.27;100239.03;114217;1193;64245;-79
2021/03/29 03:56:33;;;;;;;14.13;6.07;;;;;;;7.53;56.46;100241.69;114382;1193;64394;-79
2021/03/29 03:59:02;;;;;;;16.60;6.33;;;;;;;7.55;56.62;100243.34;114351;1193;64328;-80
2021/03/29 04:01:39;;;;;;;11.90;5.90;;;;;;;7.55;57.03;100237.16;114576;1193;64340;-79
2021/03/29 04:04:05;;;;;;;12.73;5.43;;;;;;;7.55;56.43;100243.34;114251;1193;64298;-82
2021/03/29 04:06:32;;;;;;;13.77;5.23;;;;;;;7.56;56.55;100238.88;114304;1193;64436;-79
2021/03/29 04:08:59;;;;;;;17.77;5.67;;;;;;;7.58;56.34;100231.73;114281;1193;64368;-80
2021/03/29 04:11:27;;;;;;;15.90;5.70;;;;;;;7.59;56.98;100236.12;114659;1193;64458;-79
2021/03/29 04:13:54;;;;;;;9.85;6.00;;;;;;;7.60;56.97;100240.50;114366;1193;64371;-79
2021/03/29 04:16:21;;;;;;;16.43;5.90;;;;;;;7.61;56.55;100238.70;114354;1193;64404;-79
2021/03/29 04:18:47;;;;;;;11.70;5.33;;;;;;;7.60;56.99;100240.50;114261;1193;64503;-79
2021/03/29 04:21:15;;;;;;;15.40;4.97;;;;;;;7.59;56.48;100238.78;114499;1193;64471;-78
2021/03/29 04:23:42;;;;;;;15.07;5.77;;;;;;;7.57;56.85;100240.61;114277;1193;64374;-80
2021/03/29 04:26:09;;;;;;;14.70;5.35;;;;;;;7.57;56.46;100240.61;114347;1193;64513;-82
2021/03/29 04:28:35;;;;;;;14.67;5.67;;;;;;;7.57;56.87;100241.50;114258;1193;64359;-78
2021/03/29 04:31:02;;;;;;;12.33;5.50;;;;;;;7.57;57.17;100248.59;114499;1193;64371;-78
2021/03/29 04:33:28;;;;;;;15.35;5.40;;;;;;;7.59;56.40;100244.09;114323;1193;64330;-79
2021/03/29 04:35:55;;;;;;;15.63;6.03;;;;;;;7.62;56.82;100249.27;114248;1193;64385;-80
2021/03/29 04:38:22;;;;;;;12.03;5.37;;;;;;;7.65;56.49;100249.16;114465;1193;64397;-76
2021/03/29 04:40:48;;;;;;;15.43;5.53;;;;;;;7.67;56.63;100244.63;114277;1193;64343;-78
2021/03/29 04:43:15;;;;;;;15.05;5.35;;;;;;;7.70;56.58;100240.97;114243;1193;64529;-78
2021/03/29 04:45:42;;;;;;;18.67;6.00;;;;;;;7.69;56.68;100250.74;114322;1193;64353;-81
2021/03/29 04:48:09;;;;;;;13.13;5.37;;;;;;;7.69;56.44;100249.88;114591;1193;64391;-80
2021/03/29 04:50:36;;;;;;;17.63;6.10;;;;;;;7.68;56.88;100246.36;114698;1193;64403;-78
2021/03/29 04:53:02;;;;;;;21.30;6.37;;;;;;;7.67;56.72;100246.43;114534;1193;64288;-82
2021/03/29 04:55:29;;;;;;;20.10;6.93;;;;;;;7.68;56.82;100254.33;114361;1193;64628;-78
2021/03/29 04:57:55;;;;;;;22.87;6.93;;;;;;;7.68;57.14;100249.02;114315;1192;64337;-80
2021/03/29 05:00:22;;;;;;;13.60;5.70;;;;;;;7.68;57.08;100248.16;114474;1193;64449;-78
2021/03/29 05:02:49;;;;;;;15.43;5.90;;;;;;;7.66;57.17;100255.34;114245;1193;64295;-82
2021/03/29 05:05:16;;;;;;;18.97;6.40;;;;;;;7.65;56.58;100254.48;114261;1193;64472;-81
2021/03/29 05:07:46;;;;;;;19.93;7.13;;;;;;;7.65;56.78;100257.14;114916;1193;64391;-78
2021/03/29 05:10:16;;;;;;;14.13;5.53;;;;;;;7.65;57.17;100259.80;114544;1192;64381;-80
2021/03/29 05:12:46;;;;;;;20.95;5.40;;;;;;;7.66;56.71;100261.52;114371;1193;64531;-80
2021/03/29 05:15:17;;;;;;;27.40;8.13;;;;;;;7.68;56.88;100257.00;114344;1193;64455;-77
2021/03/29 05:17:44;;;;;;;19.15;6.20;;;;;;;7.69;57.06;100256.06;114421;1193;64365;-80
2021/03/29 05:20:11;;;;;;;15.50;6.63;;;;;;;7.70;57.12;100252.50;114292;1193;64362;-80
2021/03/29 05:22:38;;;;;;;21.47;7.90;;;;;;;7.73;56.69;100262.13;114316;1193;64375;-82
2021/03/29 05:25:06;;;;;;;24.10;7.80;;;;;;;7.74;57.03;100264.72;114279;1193;64349;-78
2021/03/29 05:27:33;;;;;;;14.07;7.30;;;;;;;7.76;56.90;100264.65;114280;1193;64522;-77
2021/03/29 05:29:59;;;;;;;21.70;7.03;;;;;;;7.78;56.56;100266.34;114683;1193;64315;-80
2021/03/29 05:32:28;;;;;;;17.53;7.07;;;;;;;7.80;57.14;100268.92;114251;1193;64506;-80
2021/03/29 05:34:57;;;;;;;24.23;7.80;;;;;;;7.86;56.92;100281.97;114684;1193;64333;-83
2021/03/29 05:37:24;;;;;;;17.95;6.35;;;;;;;7.90;56.51;100274.74;114317;1193;64397;-80
2021/03/29 05:39:54;;;;;;;19.93;6.70;;;;;;;7.95;57.01;100283.37;114376;1193;64343;-80
2021/03/29 05:42:23;;;;;;;14.20;6.87;;;;;;;8.00;56.58;100289.37;114290;1193;64371;-77
2021/03/29 05:45:06;;;;;;;28.05;10.00;;;;;;;8.02;56.55;100288.39;114461;1196;64442;-81
2021/03/29 05:47:37;;;;;;;38.35;14.15;;;;;;;8.06;57.11;100297.09;114298;1192;64395;-77
2021/03/29 05:50:07;;;;;;;35.63;10.90;;;;;;;8.08;56.55;100295.26;114315;1193;64365;-77
2021/03/29 05:52:35;;;;;;;34.07;9.00;;;;;;;8.10;56.79;100301.37;114923;1193;64382;-78
2021/03/29 05:55:02;;;;;;;17.47;7.83;;;;;;;8.12;56.66;100296.84;114409;1192;64363;-77
2021/03/29 05:57:40;;;;;;;17.80;7.07;;;;;;;8.15;56.72;100299.39;114961;1193;64445;-79
2021/03/29 06:00:36;;;;;;;19.65;6.85;;;;;;;8.19;57.10;100298.30;114307;1193;64506;-78
2021/03/29 06:03:27;;;;;;;15.60;6.65;;;;;;;8.25;56.62;100298.05;114302;1193;64394;-82
2021/03/29 06:06:11;;;;;;;13.25;5.50;;;;;;;8.32;56.88;100309.30;114364;1193;64346;-78
2021/03/29 06:08:53;;;;;;;21.30;6.40;;;;;;;8.36;56.87;100310.94;114635;1193;64346;-80
2021/03/29 06:11:24;;;;;;;26.00;8.80;;;;;;;8.43;56.74;100316.86;114677;1193;64391;-81
2021/03/29 06:14:17;;;;;;;19.05;9.35;;;;;;;8.51;56.57;100320.05;114396;1192;64369;-79
2021/03/29 06:17:14;;;;;;;17.67;8.67;;;;;;;8.64;56.33;100310.59;114358;1192;64372;-80
2021/03/29 06:19:59;;;;;;;13.75;7.05;;;;;;;8.80;56.21;100308.13;114374;1193;64363;-82
2021/03/29 06:22:30;;;;;;;15.13;7.43;;;;;;;8.93;56.38;100310.16;114414;1193;64375;-78
2021/03/29 06:25:02;;;;;;;16.97;6.90;;;;;;;9.05;56.54;100299.88;114759;1193;64407;-82
2021/03/29 06:27:52;;;;;;;15.40;6.90;;;;;;;9.12;56.08;100309.32;114338;1193;64353;-79
2021/03/29 06:30:22;;;;;;;20.15;7.50;;;;;;;9.20;56.29;100307.16;114699;1193;64362;-79
2021/03/29 06:33:07;;;;;;;22.63;8.00;;;;;;;9.23;56.38;100308.83;114589;1193;64366;-82
2021/03/29 06:35:53;;;;;;;17.78;7.63;;;;;;;9.24;56.35;100311.42;114659;1193;64307;-79
2021/03/29 06:38:24;;;;;;;18.93;6.60;;;;;;;9.25;56.30;100315.81;114409;1193;64522;-76
2021/03/29 06:40:50;;;;;;;23.63;6.17;;;;;;;9.28;56.65;100317.45;114343;1193;64976;-78
2021/03/29 06:43:22;;;;;;;14.33;6.83;;;;;;;9.32;56.43;100311.91;114336;1193;64336;-79
2021/03/29 06:45:51;;;;;;;20.80;7.00;;;;;;;9.38;56.41;100308.96;114383;1193;64420;-80
2021/03/29 06:48:26;;;;;;;23.20;7.07;;;;;;;9.43;56.39;100309.62;114469;1193;64432;-81
2021/03/29 06:51:08;;;;;;;21.17;7.40;;;;;;;9.47;56.37;100311.18;114598;1192;64442;-77
2021/03/29 06:53:40;;;;;;;19.63;7.93;;;;;;;9.57;56.36;100302.76;114469;1193;64458;-80
2021/03/29 06:56:30;;;;;;;25.93;8.40;;;;;;;9.66;56.33;100297.83;114320;1192;64462;-80
2021/03/29 06:59:03;;;;;;;22.47;9.03;;;;;;;9.72;56.23;100302.00;114288;1193;64356;-77
2021/03/29 07:01:33;;;;;;;21.87;7.40;;;;;;;9.75;56.05;100301.88;114293;1193;64368;-77
2021/03/29 07:04:06;;;;;;;16.00;6.90;;;;;;;9.78;56.08;100306.18;114336;1193;64395;-79
2021/03/29 07:06:35;;;;;;;19.13;7.37;;;;;;;9.81;55.95;100301.57;114367;1193;64364;-77
2021/03/29 07:09:06;;;;;;;17.70;8.05;;;;;;;9.90;56.04;100303.77;114341;1192;64301;-80
2021/03/29 07:11:35;;;;;;;21.17;9.33;;;;;;;9.97;55.98;100301.66;114377;1192;64375;-81
2021/03/29 07:14:05;;;;;;;23.37;9.17;;;;;;;10.10;56.20;100307.25;114311;1193;64359;-80
2021/03/29 07:16:32;;;;;;;21.15;8.90;;;;;;;10.20;56.24;100309.39;114314;1193;64445;-85
2021/03/29 07:19:06;;;;;;;20.40;9.57;;;;;;;10.28;56.29;100315.23;114313;1193;64362;-80
2021/03/29 07:21:34;;;;;;;21.33;8.20;;;;;;;10.29;56.02;100310.75;114332;1193;64368;-84
2021/03/29 07:24:20;;;;;;;19.10;7.97;;;;;;;10.29;55.86;100308.08;114354;1193;64378;-82
2021/03/29 07:26:54;;;;;;;20.73;7.60;;;;;;;10.38;56.13;100304.95;114344;1192;64362;-81
2021/03/29 07:29:32;;;;;;;18.30;7.70;;;;;;;10.50;56.05;100307.00;114284;1193;64812;-87
2021/03/29 07:32:05;;;;;;;18.70;7.80;;;;;;;10.63;55.95;100307.22;114330;1193;64359;-82
2021/03/29 07:34:50;;;;;;;17.43;7.60;;;;;;;10.74;55.73;100299.48;114395;1192;64328;-83
2021/03/29 07:37:53;;;;;;;16.13;7.28;;;;;;;10.88;55.49;100305.89;114397;1193;64397;-82
2021/03/29 07:40:28;;;;;;;43.43;8.87;;;;;;;10.99;55.74;100303.52;114334;1192;64371;-81
2021/03/29 07:43:09;;;;;;;18.25;7.15;;;;;;;11.06;55.51;100312.93;114415;1193;64279;-81
2021/03/29 07:45:36;;;;;;;15.20;7.27;;;;;;;11.18;55.70;100308.73;114414;1193;64388;-80
2021/03/29 07:48:04;;;;;;;17.53;7.30;;;;;;;11.27;55.28;100314.45;114408;1192;64349;-80
2021/03/29 07:50:30;;;;;;;26.63;9.40;;;;;;;11.30;55.44;100322.30;114452;1193;64291;-85
2021/03/29 07:53:04;;;;;;;25.80;9.40;;;;;;;11.38;55.23;100317.38;114286;1193;64467;-80
2021/03/29 07:55:46;;;;;;;28.73;10.03;;;;;;;11.44;55.01;100313.50;114499;1192;64333;-81
2021/03/29 07:58:23;;;;;;;15.97;7.37;;;;;;;11.48;55.03;100322.23;114336;1192;64439;-80
2021/03/29 08:01:00;;;;;;;23.20;7.37;;;;;;;11.47;54.81;100320.52;114299;1192;64362;-81
2021/03/29 08:03:26;;;;;;;20.60;8.10;;;;;;;11.39;54.77;100326.30;114355;1193;64298;-81
2021/03/29 08:05:54;;;;;;;19.45;7.65;;;;;;;11.41;54.91;100324.39;114318;1193;64444;-81
2021/03/29 08:08:30;;;;;;;23.37;9.47;;;;;;;11.49;55.42;100330.16;114247;1193;64471;-80
2021/03/29 08:11:00;;;;;;;;;;;;;;;11.62;55.26;100328.53;114307;1200;64484;-81
2021/03/29 08:13:42;;;;;;;18.47;9.00;;;;;;;11.73;55.24;100327.94;114322;1192;64362;-80
2021/03/29 08:16:15;;;;;;;20.73;11.20;;;;;;;11.82;55.07;100331.92;114340;1193;64394;-82
2021/03/29 08:19:19;;;;;;;20.50;9.70;;;;;;;11.93;55.15;100334.86;114390;1193;64366;-83
2021/03/29 08:22:02;;;;;;;19.65;9.20;;;;;;;12.06;55.47;100332.34;114313;1193;64359;-78
2021/03/29 08:24:31;;;;;;;20.67;8.40;;;;;;;12.17;54.84;100338.80;114391;1193;64604;-81
2021/03/29 08:27:05;;;;;;;17.97;7.70;;;;;;;12.24;54.58;100343.80;114369;1193;64349;-79
2021/03/29 08:29:34;;;;;;;22.40;8.77;;;;;;;12.42;54.89;100343.58;114296;1192;64417;-80
2021/03/29 08:32:08;;;;;;;15.53;7.87;;;;;;;12.61;55.01;100348.70;114386;1193;64282;-79
2021/03/29 08:34:43;;;;;;;16.37;8.70;;;;;;;12.91;54.73;100348.64;114370;1192;64289;-80
2021/03/29 08:37:17;;;;;;;14.00;7.30;;;;;;;13.16;54.73;100353.36;114364;1192;64350;-80
2021/03/29 08:39:47;;;;;;;12.03;6.10;;;;;;;13.16;53.42;100342.63;114393;1193;64388;-78
2021/03/29 08:42:17;;;;;;;16.70;6.43;;;;;;;13.01;53.61;100348.95;114321;1193;64298;-77
2021/03/29 08:44:47;;;;;;;18.23;7.13;;;;;;;12.87;53.89;100347.13;114437;1191;64398;-78
2021/03/29 08:47:16;;;;;;;12.65;7.35;;;;;;;12.90;54.37;100348.74;114300;1193;64512;-79
2021/03/29 08:49:45;;;;;;;17.47;6.43;;;;;;;13.13;53.11;100340.16;114367;1193;64397;-80
2021/03/29 08:52:12;;;;;;;14.53;6.23;;;;;;;13.14;53.37;100346.38;114374;1193;64411;-78
2021/03/29 08:54:55;;;;;;;18.00;7.27;;;;;;;13.28;53.31;100337.50;114307;1193;64445;-84
2021/03/29 08:57:27;;;;;;;17.97;7.53;;;;;;;13.71;53.41;100336.48;114431;1193;64420;-79
2021/03/29 08:59:59;;;;;;;22.70;7.37;;;;;;;14.06;53.63;100334.20;114453;1193;64363;-78
2021/03/29 09:02:27;;;;;;;20.05;7.45;;;;;;;14.45;53.64;100329.80;114414;1193;64426;-76
2021/03/29 09:05:00;;;;;;;12.85;7.10;;;;;;;14.79;53.47;100333.74;114337;1193;64436;-77
2021/03/29 09:07:37;;;;;;;16.55;7.75;;;;;;;15.01;52.83;100330.41;114365;1193;64285;-77
2021/03/29 09:10:24;;;;;;;19.97;7.23;;;;;;;15.17;52.87;100338.27;114280;1192;64420;-76
2021/03/29 09:12:58;;;;;;;13.50;5.70;;;;;;;15.46;53.35;100338.89;114318;1193;64345;-77
2021/03/29 09:15:31;;;;;;;18.80;7.35;;;;;;;15.85;53.69;100343.24;114333;1193;64356;-80
2021/03/29 09:18:07;;;;;;;16.10;7.50;;;;;;;15.86;52.91;100347.66;114249;1193;64420;-82
2021/03/29 09:20:48;;;;;;;17.83;7.17;;;;;;;15.65;52.68;100341.16;114287;1192;64397;-78
2021/03/29 09:23:20;;;;;;;18.85;7.40;;;;;;;15.71;53.20;100340.67;114384;1192;64362;-75
2021/03/29 09:25:51;;;;;;;22.05;8.35;;;;;;;15.67;52.14;100336.50;114354;1192;64522;-75
2021/03/29 09:31:02;;;;;;;21.10;7.77;;;;;;;15.47;52.44;100339.75;114304;1192;64378;-79
2021/03/29 09:33:30;;;;;;;17.37;6.80;;;;;;;15.50;52.74;100337.69;114344;1193;64311;-78
2021/03/29 09:36:06;;;;;;;17.37;7.17;;;;;;;15.46;52.08;100343.39;114431;1192;64361;-80
2021/03/29 09:38:36;;;;;;;18.00;7.53;;;;;;;15.43;52.82;100343.63;114456;1193;64459;-78
2021/03/29 09:41:14;;;;;;;22.60;8.80;;;;;;;15.48;52.80;100353.09;114395;1193;64355;-76
2021/03/29 09:43:47;;;;;;;20.73;9.13;;;;;;;15.55;53.01;100348.13;114406;1193;64366;-75
2021/03/29 09:46:15;;;;;;;20.75;8.80;;;;;;;15.73;53.38;100352.22;114349;1193;64285;-78
2021/03/29 09:48:42;;;;;;;21.73;8.40;;;;;;;15.77;53.02;100356.39;114412;1193;64349;-79
2021/03/29 09:51:23;;;;;;;17.60;8.50;;;;;;;15.70;52.82;100365.89;114412;1193;64387;-79
2021/03/29 09:53:50;;;;;;;17.50;6.90;;;;;;;15.34;52.76;100359.47;114386;1193;64419;-76
2021/03/29 09:56:38;;;;;;;13.40;5.93;;;;;;;15.18;52.76;100363.34;114410;1193;64713;-80
2021/03/29 09:59:05;;;;;;;13.43;6.60;;;;;;;15.01;53.42;100354.61;114355;1193;64352;-78
2021/03/29 10:01:31;;;;;;;18.30;7.00;;;;;;;15.03;53.06;100359.91;114292;1192;64433;-77
2021/03/29 10:04:00;;;;;;;21.55;9.20;;;;;;;15.04;53.36;100358.94;114363;1193;64519;-76
2021/03/29 10:06:28;;;;;;;21.00;8.23;;;;;;;15.02;53.34;100364.44;114419;1193;64332;-76
2021/03/29 10:08:58;;;;;;;19.60;9.27;;;;;;;14.97;53.55;100363.89;114403;1193;64413;-78
2021/03/29 10:11:26;;;;;;;21.05;9.00;;;;;;;14.95;53.23;100367.63;114327;1193;64436;-78
2021/03/29 10:14:06;;;;;;;19.63;7.63;;;;;;;14.83;53.20;100363.98;114449;1193;64467;-77
2021/03/29 10:16:42;;;;;;;17.13;7.77;;;;;;;14.70;53.69;100363.97;114256;1193;64451;-78
2021/03/29 10:19:12;;;;;;;16.30;6.80;;;;;;;14.66;53.46;100362.44;114382;1193;64336;-76
2021/03/29 10:22:07;;;;;;;15.35;7.00;;;;;;;14.59;53.33;100372.75;114405;1193;64544;-80
2021/03/29 10:24:36;;;;;;;13.00;6.45;;;;;;;14.62;53.61;100365.44;114469;1193;64340;-77
2021/03/29 10:27:08;;;;;;;25.33;8.17;;;;;;;14.82;53.73;100363.13;114467;1193;64391;-77
2021/03/29 10:29:38;;;;;;;21.57;9.73;;;;;;;15.03;53.66;100355.39;114310;1193;64362;-81
2021/03/29 10:32:11;;;;;;;21.05;9.15;;;;;;;15.12;53.69;100360.11;114339;1193;64397;-76
2021/03/29 10:34:40;;;;;;;23.87;10.20;;;;;;;15.28;54.13;100351.83;114418;1193;64371;-80
2021/03/29 10:37:27;;;;;;;24.87;9.97;;;;;;;15.51;54.26;100354.70;114373;1192;64379;-77
2021/03/29 10:39:56;;;;;;;16.60;8.20;;;;;;;15.52;53.41;100357.27;114372;1192;64564;-76
2021/03/29 10:42:25;;;;;;;18.83;8.73;;;;;;;15.54;53.90;100357.19;114425;1193;64330;-77
2021/03/29 10:44:53;;;;;;;18.93;8.33;;;;;;;15.60;53.74;100343.28;114551;1193;64461;-78
2021/03/29 10:47:22;;;;;;;16.43;8.27;;;;;;;15.53;53.82;100339.31;114439;1193;64302;-81
2021/03/29 10:49:50;;;;;;;13.83;7.40;;;;;;;15.53;53.84;100337.48;114429;1193;64382;-84
2021/03/29 10:52:17;;;;;;;20.73;10.13;;;;;;;15.67;54.21;100344.58;114429;1193;64359;-77
2021/03/29 10:54:45;;;;;;;16.83;8.13;;;;;;;15.95;53.95;100349.66;114355;1193;64359;-76
2021/03/29 10:57:12;;;;;;;25.37;9.50;;;;;;;16.08;53.38;100348.75;114320;1192;64799;-75
2021/03/29 10:59:39;;;;;;;24.40;10.83;;;;;;;16.16;53.25;100336.44;114268;1193;64449;-77
2021/03/29 11:02:06;;;;;;;20.00;9.27;;;;;;;16.36;53.54;100342.16;114307;1193;64295;-78
2021/03/29 11:04:33;;;;;;;16.43;7.87;;;;;;;16.68;53.64;100337.86;114264;1193;64330;-77
2021/03/29 11:07:00;;;;;;;13.40;8.50;;;;;;;16.87;53.33;100333.77;114311;1193;64352;-79
2021/03/29 11:09:28;;;;;;;20.45;8.60;;;;;;;16.98;53.31;100333.77;114346;1193;64318;-77
2021/03/29 11:11:55;;;;;;;16.20;9.10;;;;;;;17.10;53.46;100330.11;114374;1193;64428;-75
2021/03/29 11:14:22;;;;;;;20.20;8.55;;;;;;;16.91;52.66;100335.23;114278;1193;64333;-77
2021/03/29 11:16:51;;;;;;;11.53;6.33;;;;;;;16.87;52.97;100333.77;114324;1192;64387;-80
2021/03/29 11:19:20;;;;;;;15.13;7.50;;;;;;;16.97;53.24;100323.96;114380;1193;64381;-76
2021/03/29 11:21:49;;;;;;;18.87;8.23;;;;;;;17.01;52.72;100328.16;114326;1192;64424;-81
2021/03/29 11:24:16;;;;;;;19.30;8.77;;;;;;;16.96;52.85;100319.55;114342;1193;64333;-77
2021/03/29 11:26:42;;;;;;;25.80;11.85;;;;;;;16.85;52.58;100324.92;114267;1193;64294;-82
2021/03/29 11:29:09;;;;;;;20.40;10.10;;;;;;;16.84;53.13;100321.37;114298;1193;64478;-80
2021/03/29 11:31:39;;;;;;;13.90;6.97;;;;;;;16.97;53.22;100313.17;114312;1193;64446;-76
2021/03/29 11:34:07;;;;;;;17.23;7.90;;;;;;;17.08;52.92;100305.09;114281;1193;64385;-81
2021/03/29 11:36:34;;;;;;;15.80;8.80;;;;;;;17.26;53.20;100305.47;114316;1192;64436;-75